sensor_id;sensor_type;location;lat;lon;timestamp;temperature;humidity
736;DHT22;352;48.626;9.238;2023-03-19T00:00:08;11.20;99.30
736;DHT22;352;48.626;9.238;2023-03-19T00:02:36;11.10;99.20
736;DHT22;352;48.626;9.238;2023-03-19T00:05:04;11.10;99.20
736;DHT22;352;48.626;9.238;2023-03-19T00:07:31;11.10;99.30
736;DHT22;352;48.626;9.238;2023-03-19T00:09:58;11.20;99.30
736;DHT22;352;48.626;9.238;2023-03-19T00:12:26;11.10;99.40
736;DHT22;352;48.626;9.238;2023-03-19T00:14:52;11.10;99.50
736;DHT22;352;48.626;9.238;2023-03-19T00:17:19;11.10;99.90
736;DHT22;352;48.626;9.238;2023-03-19T00:19:46;11.10;99.60
736;DHT22;352;48.626;9.238;2023-03-19T00:22:13;11.10;99.60
736;DHT22;352;48.626;9.238;2023-03-19T00:24:39;11.10;99.70
736;DHT22;352;48.626;9.238;2023-03-19T00:27:06;11.10;99.70
736;DHT22;352;48.626;9.238;2023-03-19T00:29:34;11.00;99.90
736;DHT22;352;48.626;9.238;2023-03-19T00:32:02;11.00;99.90
736;DHT22;352;48.626;9.238;2023-03-19T00:34:28;11.00;99.90
736;DHT22;352;48.626;9.238;2023-03-19T00:36:55;11.00;99.90
736;DHT22;352;48.626;9.238;2023-03-19T00:39:22;11.00;99.90
736;DHT22;352;48.626;9.238;2023-03-19T00:41:48;11.00;99.90
736;DHT22;352;48.626;9.238;2023-03-19T00:44:16;10.90;99.90
736;DHT22;352;48.626;9.238;2023-03-19T00:46:45;10.90;99.90
736;DHT22;352;48.626;9.238;2023-03-19T00:49:11;10.90;99.90
736;DHT22;352;48.626;9.238;2023-03-19T00:51:38;10.90;99.90
736;DHT22;352;48.626;9.238;2023-03-19T00:54:09;10.90;99.90
736;DHT22;352;48.626;9.238;2023-03-19T00:56:36;10.90;99.90
736;DHT22;352;48.626;9.238;2023-03-19T00:59:03;11.00;99.90
736;DHT22;352;48.626;9.238;2023-03-19T01:01:30;11.00;99.90
736;DHT22;352;48.626;9.238;2023-03-19T01:03:58;11.00;99.90
736;DHT22;352;48.626;9.238;2023-03-19T01:06:25;10.90;99.90
736;DHT22;352;48.626;9.238;2023-03-19T01:08:51;11.00;99.90
736;DHT22;352;48.626;9.238;2023-03-19T01:11:18;11.00;99.90
736;DHT22;352;48.626;9.238;2023-03-19T01:13:45;11.00;99.90
736;DHT22;352;48.626;9.238;2023-03-19T01:16:12;11.00;99.90
736;DHT22;352;48.626;9.238;2023-03-19T01:18:39;11.10;99.90
736;DHT22;352;48.626;9.238;2023-03-19T01:21:07;11.00;99.90
736;DHT22;352;48.626;9.238;2023-03-19T01:23:35;11.10;99.90
736;DHT22;352;48.626;9.238;2023-03-19T01:26:02;11.10;99.90
736;DHT22;352;48.626;9.238;2023-03-19T01:28:28;11.10;99.90
736;DHT22;352;48.626;9.238;2023-03-19T01:30:58;11.10;99.90
736;DHT22;352;48.626;9.238;2023-03-19T01:33:25;11.10;99.90
736;DHT22;352;48.626;9.238;2023-03-19T01:35:52;11.10;99.90
736;DHT22;352;48.626;9.238;2023-03-19T01:38:20;11.10;99.90
736;DHT22;352;48.626;9.238;2023-03-19T01:40:47;11.10;99.90
736;DHT22;352;48.626;9.238;2023-03-19T01:43:16;11.20;99.90
736;DHT22;352;48.626;9.238;2023-03-19T01:45:44;11.30;99.60
736;DHT22;352;48.626;9.238;2023-03-19T01:48:19;11.30;99.30
736;DHT22;352;48.626;9.238;2023-03-19T01:50:49;11.40;99.20
736;DHT22;352;48.626;9.238;2023-03-19T01:53:21;11.40;99.10
736;DHT22;352;48.626;9.238;2023-03-19T01:55:49;11.40;98.90
736;DHT22;352;48.626;9.238;2023-03-19T01:58:17;11.40;98.80
736;DHT22;352;48.626;9.238;2023-03-19T02:00:44;11.50;98.80
736;DHT22;352;48.626;9.238;2023-03-19T02:03:12;11.50;98.80
736;DHT22;352;48.626;9.238;2023-03-19T02:05:40;11.50;98.90
736;DHT22;352;48.626;9.238;2023-03-19T02:08:09;11.50;98.80
736;DHT22;352;48.626;9.238;2023-03-19T02:10:39;11.50;98.80
736;DHT22;352;48.626;9.238;2023-03-19T02:13:06;11.60;98.90
736;DHT22;352;48.626;9.238;2023-03-19T02:15:33;11.60;99.00
736;DHT22;352;48.626;9.238;2023-03-19T02:18:00;11.60;99.10
736;DHT22;352;48.626;9.238;2023-03-19T02:20:31;11.90;99.90
736;DHT22;352;48.626;9.238;2023-03-19T02:23:06;11.60;99.90
736;DHT22;352;48.626;9.238;2023-03-19T02:25:40;11.60;99.90
736;DHT22;352;48.626;9.238;2023-03-19T02:28:11;11.70;99.90
736;DHT22;352;48.626;9.238;2023-03-19T02:30:38;11.70;99.90
736;DHT22;352;48.626;9.238;2023-03-19T02:33:05;11.80;99.90
736;DHT22;352;48.626;9.238;2023-03-19T02:35:33;11.80;99.90
736;DHT22;352;48.626;9.238;2023-03-19T02:38:02;11.80;99.90
736;DHT22;352;48.626;9.238;2023-03-19T02:40:35;11.80;99.90
736;DHT22;352;48.626;9.238;2023-03-19T02:43:02;11.90;99.90
736;DHT22;352;48.626;9.238;2023-03-19T02:45:31;11.90;99.90
736;DHT22;352;48.626;9.238;2023-03-19T02:47:59;11.90;99.90
736;DHT22;352;48.626;9.238;2023-03-19T02:50:26;11.90;99.90
736;DHT22;352;48.626;9.238;2023-03-19T02:52:53;11.90;99.90
736;DHT22;352;48.626;9.238;2023-03-19T02:55:21;11.90;99.90
736;DHT22;352;48.626;9.238;2023-03-19T02:57:47;11.80;99.90
736;DHT22;352;48.626;9.238;2023-03-19T03:00:15;11.80;99.90
736;DHT22;352;48.626;9.238;2023-03-19T03:02:44;11.70;99.90
736;DHT22;352;48.626;9.238;2023-03-19T03:05:11;11.70;99.90
736;DHT22;352;48.626;9.238;2023-03-19T03:07:39;11.70;99.90
736;DHT22;352;48.626;9.238;2023-03-19T03:10:08;11.60;99.90
736;DHT22;352;48.626;9.238;2023-03-19T03:12:35;11.50;99.90
736;DHT22;352;48.626;9.238;2023-03-19T03:15:03;11.50;99.90
736;DHT22;352;48.626;9.238;2023-03-19T03:17:30;11.50;99.90
736;DHT22;352;48.626;9.238;2023-03-19T03:19:58;11.40;99.90
736;DHT22;352;48.626;9.238;2023-03-19T03:22:25;11.40;99.90
736;DHT22;352;48.626;9.238;2023-03-19T03:24:52;11.40;99.90
736;DHT22;352;48.626;9.238;2023-03-19T03:27:18;11.40;99.90
736;DHT22;352;48.626;9.238;2023-03-19T03:29:45;11.30;99.90
736;DHT22;352;48.626;9.238;2023-03-19T03:32:13;11.30;99.90
736;DHT22;352;48.626;9.238;2023-03-19T03:34:40;11.30;99.90
736;DHT22;352;48.626;9.238;2023-03-19T03:37:08;11.30;99.90
736;DHT22;352;48.626;9.238;2023-03-19T03:39:34;11.20;99.90
736;DHT22;352;48.626;9.238;2023-03-19T03:42:02;11.20;99.90
736;DHT22;352;48.626;9.238;2023-03-19T03:44:29;11.20;99.90
736;DHT22;352;48.626;9.238;2023-03-19T03:46:56;11.20;99.90
736;DHT22;352;48.626;9.238;2023-03-19T03:49:23;11.10;99.90
736;DHT22;352;48.626;9.238;2023-03-19T03:51:50;11.00;99.90
736;DHT22;352;48.626;9.238;2023-03-19T03:54:18;11.00;99.90
736;DHT22;352;48.626;9.238;2023-03-19T03:56:45;10.90;99.90
736;DHT22;352;48.626;9.238;2023-03-19T03:59:14;11.00;99.90
736;DHT22;352;48.626;9.238;2023-03-19T04:01:41;10.90;99.90
736;DHT22;352;48.626;9.238;2023-03-19T04:04:08;10.90;99.90
736;DHT22;352;48.626;9.238;2023-03-19T04:06:35;10.90;99.90
736;DHT22;352;48.626;9.238;2023-03-19T04:09:01;10.90;99.90
736;DHT22;352;48.626;9.238;2023-03-19T04:11:31;10.90;99.90
736;DHT22;352;48.626;9.238;2023-03-19T04:13:57;11.00;99.90
736;DHT22;352;48.626;9.238;2023-03-19T04:16:25;10.90;99.90
736;DHT22;352;48.626;9.238;2023-03-19T04:18:53;10.90;99.90
736;DHT22;352;48.626;9.238;2023-03-19T04:21:19;10.90;99.90
736;DHT22;352;48.626;9.238;2023-03-19T04:23:46;10.90;99.90
736;DHT22;352;48.626;9.238;2023-03-19T04:26:13;10.90;99.90
736;DHT22;352;48.626;9.238;2023-03-19T04:28:41;11.00;99.90
736;DHT22;352;48.626;9.238;2023-03-19T04:31:08;11.00;99.90
736;DHT22;352;48.626;9.238;2023-03-19T04:33:36;11.00;99.90
736;DHT22;352;48.626;9.238;2023-03-19T04:36:04;11.00;99.90
736;DHT22;352;48.626;9.238;2023-03-19T04:38:30;11.00;99.90
736;DHT22;352;48.626;9.238;2023-03-19T04:40:57;11.00;99.90
736;DHT22;352;48.626;9.238;2023-03-19T04:43:24;11.00;99.90
736;DHT22;352;48.626;9.238;2023-03-19T04:45:53;11.00;99.90
736;DHT22;352;48.626;9.238;2023-03-19T04:48:20;11.00;99.90
736;DHT22;352;48.626;9.238;2023-03-19T04:50:47;11.00;99.90
736;DHT22;352;48.626;9.238;2023-03-19T04:53:16;11.00;99.90
736;DHT22;352;48.626;9.238;2023-03-19T04:55:43;11.00;99.90
736;DHT22;352;48.626;9.238;2023-03-19T04:58:10;11.00;99.90
736;DHT22;352;48.626;9.238;2023-03-19T05:00:37;11.00;99.90
736;DHT22;352;48.626;9.238;2023-03-19T05:03:05;11.10;99.90
736;DHT22;352;48.626;9.238;2023-03-19T05:05:32;11.10;99.90
736;DHT22;352;48.626;9.238;2023-03-19T05:07:59;11.10;99.90
736;DHT22;352;48.626;9.238;2023-03-19T05:10:26;11.10;99.90
736;DHT22;352;48.626;9.238;2023-03-19T05:12:53;11.10;99.90
736;DHT22;352;48.626;9.238;2023-03-19T05:15:20;11.10;99.90
736;DHT22;352;48.626;9.238;2023-03-19T05:17:46;11.10;99.90
736;DHT22;352;48.626;9.238;2023-03-19T05:20:15;11.10;99.90
736;DHT22;352;48.626;9.238;2023-03-19T05:22:42;11.10;99.90
736;DHT22;352;48.626;9.238;2023-03-19T05:25:09;11.10;99.90
736;DHT22;352;48.626;9.238;2023-03-19T05:27:35;11.10;99.90
736;DHT22;352;48.626;9.238;2023-03-19T05:30:03;11.10;99.90
736;DHT22;352;48.626;9.238;2023-03-19T05:32:30;11.10;99.90
736;DHT22;352;48.626;9.238;2023-03-19T05:34:57;11.10;99.90
736;DHT22;352;48.626;9.238;2023-03-19T05:37:25;11.10;99.90
736;DHT22;352;48.626;9.238;2023-03-19T05:39:52;11.10;99.90
736;DHT22;352;48.626;9.238;2023-03-19T05:42:19;11.10;99.90
736;DHT22;352;48.626;9.238;2023-03-19T05:44:45;11.00;99.90
736;DHT22;352;48.626;9.238;2023-03-19T05:47:12;11.00;99.90
736;DHT22;352;48.626;9.238;2023-03-19T05:49:39;10.90;99.90
736;DHT22;352;48.626;9.238;2023-03-19T05:52:06;10.90;99.90
736;DHT22;352;48.626;9.238;2023-03-19T05:54:34;10.90;99.90
736;DHT22;352;48.626;9.238;2023-03-19T05:57:01;10.90;99.90
736;DHT22;352;48.626;9.238;2023-03-19T05:59:28;10.90;99.90
736;DHT22;352;48.626;9.238;2023-03-19T06:01:55;10.90;99.90
736;DHT22;352;48.626;9.238;2023-03-19T06:04:22;10.90;99.90
736;DHT22;352;48.626;9.238;2023-03-19T06:06:49;10.90;99.90
736;DHT22;352;48.626;9.238;2023-03-19T06:09:15;10.90;99.90
736;DHT22;352;48.626;9.238;2023-03-19T06:11:44;10.90;99.90
736;DHT22;352;48.626;9.238;2023-03-19T06:14:10;11.00;99.90
736;DHT22;352;48.626;9.238;2023-03-19T06:16:37;11.00;99.90
736;DHT22;352;48.626;9.238;2023-03-19T06:19:04;11.00;99.90
736;DHT22;352;48.626;9.238;2023-03-19T06:21:31;11.00;99.90
736;DHT22;352;48.626;9.238;2023-03-19T06:23:57;11.10;99.90
736;DHT22;352;48.626;9.238;2023-03-19T06:26:25;11.10;99.90
736;DHT22;352;48.626;9.238;2023-03-19T06:28:53;11.10;99.90
736;DHT22;352;48.626;9.238;2023-03-19T06:31:20;11.10;99.90
736;DHT22;352;48.626;9.238;2023-03-19T06:33:47;11.20;99.90
736;DHT22;352;48.626;9.238;2023-03-19T06:36:14;11.20;99.90
736;DHT22;352;48.626;9.238;2023-03-19T06:38:41;11.30;99.90
736;DHT22;352;48.626;9.238;2023-03-19T06:41:08;11.30;99.90
736;DHT22;352;48.626;9.238;2023-03-19T06:43:34;11.40;99.90
736;DHT22;352;48.626;9.238;2023-03-19T06:46:03;11.40;99.90
736;DHT22;352;48.626;9.238;2023-03-19T06:48:31;11.50;99.90
736;DHT22;352;48.626;9.238;2023-03-19T06:50:58;11.60;99.90
736;DHT22;352;48.626;9.238;2023-03-19T06:53:26;11.70;99.90
736;DHT22;352;48.626;9.238;2023-03-19T06:55:53;11.80;99.90
736;DHT22;352;48.626;9.238;2023-03-19T06:58:20;11.90;99.90
736;DHT22;352;48.626;9.238;2023-03-19T07:00:47;12.00;99.90
736;DHT22;352;48.626;9.238;2023-03-19T07:03:15;12.10;99.90
736;DHT22;352;48.626;9.238;2023-03-19T07:05:41;12.20;99.90
736;DHT22;352;48.626;9.238;2023-03-19T07:08:08;12.30;99.90
736;DHT22;352;48.626;9.238;2023-03-19T07:10:36;12.30;99.90
736;DHT22;352;48.626;9.238;2023-03-19T07:13:03;12.40;99.90
736;DHT22;352;48.626;9.238;2023-03-19T07:15:30;12.40;99.90
736;DHT22;352;48.626;9.238;2023-03-19T07:17:57;12.40;99.90
736;DHT22;352;48.626;9.238;2023-03-19T07:20:25;12.50;99.90
736;DHT22;352;48.626;9.238;2023-03-19T07:22:52;12.50;99.90
736;DHT22;352;48.626;9.238;2023-03-19T07:25:19;12.60;99.90
736;DHT22;352;48.626;9.238;2023-03-19T07:27:46;12.60;99.90
736;DHT22;352;48.626;9.238;2023-03-19T07:30:13;12.70;99.90
736;DHT22;352;48.626;9.238;2023-03-19T07:32:40;12.80;99.90
736;DHT22;352;48.626;9.238;2023-03-19T07:35:09;12.80;99.90
736;DHT22;352;48.626;9.238;2023-03-19T07:37:37;12.70;99.90
736;DHT22;352;48.626;9.238;2023-03-19T07:40:04;12.80;99.90
736;DHT22;352;48.626;9.238;2023-03-19T07:42:31;12.90;99.90
736;DHT22;352;48.626;9.238;2023-03-19T07:45:00;13.00;99.90
736;DHT22;352;48.626;9.238;2023-03-19T07:47:28;13.10;99.90
736;DHT22;352;48.626;9.238;2023-03-19T07:49:55;13.20;99.90
736;DHT22;352;48.626;9.238;2023-03-19T07:52:22;13.30;99.90
736;DHT22;352;48.626;9.238;2023-03-19T07:54:50;13.40;99.90
736;DHT22;352;48.626;9.238;2023-03-19T07:57:17;13.50;99.90
736;DHT22;352;48.626;9.238;2023-03-19T07:59:45;13.50;99.90
736;DHT22;352;48.626;9.238;2023-03-19T08:02:12;13.50;99.90
736;DHT22;352;48.626;9.238;2023-03-19T08:04:39;13.50;99.90
736;DHT22;352;48.626;9.238;2023-03-19T08:07:06;13.50;99.90
736;DHT22;352;48.626;9.238;2023-03-19T08:09:35;13.50;99.90
736;DHT22;352;48.626;9.238;2023-03-19T08:12:03;13.50;99.90
736;DHT22;352;48.626;9.238;2023-03-19T08:14:31;13.50;99.90
736;DHT22;352;48.626;9.238;2023-03-19T08:16:58;13.60;99.90
736;DHT22;352;48.626;9.238;2023-03-19T08:19:24;13.60;99.90
736;DHT22;352;48.626;9.238;2023-03-19T08:21:51;13.70;99.90
736;DHT22;352;48.626;9.238;2023-03-19T08:24:18;13.70;99.90
736;DHT22;352;48.626;9.238;2023-03-19T08:26:45;13.70;99.90
736;DHT22;352;48.626;9.238;2023-03-19T08:29:13;13.70;99.90
736;DHT22;352;48.626;9.238;2023-03-19T08:31:40;13.80;99.90
736;DHT22;352;48.626;9.238;2023-03-19T08:34:07;13.90;99.90
736;DHT22;352;48.626;9.238;2023-03-19T08:36:35;14.00;99.90
736;DHT22;352;48.626;9.238;2023-03-19T08:39:02;14.10;99.90
736;DHT22;352;48.626;9.238;2023-03-19T08:41:29;14.30;99.90
736;DHT22;352;48.626;9.238;2023-03-19T08:43:55;14.20;99.90
736;DHT22;352;48.626;9.238;2023-03-19T08:46:23;14.20;99.90
736;DHT22;352;48.626;9.238;2023-03-19T08:48:51;14.20;99.90
736;DHT22;352;48.626;9.238;2023-03-19T08:51:18;14.20;99.90
736;DHT22;352;48.626;9.238;2023-03-19T08:53:45;14.20;99.90
736;DHT22;352;48.626;9.238;2023-03-19T08:56:12;14.20;99.90
736;DHT22;352;48.626;9.238;2023-03-19T08:58:38;14.30;99.90
736;DHT22;352;48.626;9.238;2023-03-19T09:01:08;14.40;99.90
736;DHT22;352;48.626;9.238;2023-03-19T09:03:37;14.50;99.90
736;DHT22;352;48.626;9.238;2023-03-19T09:06:06;14.50;99.90
736;DHT22;352;48.626;9.238;2023-03-19T09:08:34;14.70;99.90
736;DHT22;352;48.626;9.238;2023-03-19T09:11:02;14.80;99.90
736;DHT22;352;48.626;9.238;2023-03-19T09:13:29;14.90;99.90
736;DHT22;352;48.626;9.238;2023-03-19T09:15:56;15.20;99.90
736;DHT22;352;48.626;9.238;2023-03-19T09:18:22;15.50;99.90
736;DHT22;352;48.626;9.238;2023-03-19T09:20:51;15.90;99.90
736;DHT22;352;48.626;9.238;2023-03-19T09:23:19;17.00;99.90
736;DHT22;352;48.626;9.238;2023-03-19T09:25:45;18.70;99.90
736;DHT22;352;48.626;9.238;2023-03-19T09:28:12;20.30;98.40
736;DHT22;352;48.626;9.238;2023-03-19T09:30:39;21.50;95.50
736;DHT22;352;48.626;9.238;2023-03-19T09:33:06;23.50;92.10
736;DHT22;352;48.626;9.238;2023-03-19T09:35:32;25.60;87.30
736;DHT22;352;48.626;9.238;2023-03-19T09:38:01;27.50;76.90
736;DHT22;352;48.626;9.238;2023-03-19T09:40:33;28.90;67.90
736;DHT22;352;48.626;9.238;2023-03-19T09:43:08;29.70;61.10
736;DHT22;352;48.626;9.238;2023-03-19T09:45:44;30.30;56.90
736;DHT22;352;48.626;9.238;2023-03-19T09:48:15;30.00;55.00
736;DHT22;352;48.626;9.238;2023-03-19T09:50:45;30.30;53.20
736;DHT22;352;48.626;9.238;2023-03-19T09:53:22;30.90;50.20
736;DHT22;352;48.626;9.238;2023-03-19T09:55:51;31.50;49.10
736;DHT22;352;48.626;9.238;2023-03-19T09:58:20;31.30;45.90
736;DHT22;352;48.626;9.238;2023-03-19T10:00:49;32.00;44.60
736;DHT22;352;48.626;9.238;2023-03-19T10:03:42;31.10;43.70
736;DHT22;352;48.626;9.238;2023-03-19T10:06:23;29.20;45.80
736;DHT22;352;48.626;9.238;2023-03-19T10:09:14;27.50;49.60
736;DHT22;352;48.626;9.238;2023-03-19T10:11:52;28.20;49.40
736;DHT22;352;48.626;9.238;2023-03-19T10:14:37;28.80;48.70
736;DHT22;352;48.626;9.238;2023-03-19T10:17:13;28.70;46.00
736;DHT22;352;48.626;9.238;2023-03-19T10:19:45;29.10;45.50
736;DHT22;352;48.626;9.238;2023-03-19T10:22:17;29.30;45.10
736;DHT22;352;48.626;9.238;2023-03-19T10:24:47;29.20;45.60
736;DHT22;352;48.626;9.238;2023-03-19T10:27:15;29.40;45.20
736;DHT22;352;48.626;9.238;2023-03-19T10:29:42;29.00;44.50
736;DHT22;352;48.626;9.238;2023-03-19T10:32:16;28.50;45.00
736;DHT22;352;48.626;9.238;2023-03-19T10:34:45;28.00;45.90
736;DHT22;352;48.626;9.238;2023-03-19T10:37:15;28.40;46.70
736;DHT22;352;48.626;9.238;2023-03-19T10:39:46;28.90;45.20
736;DHT22;352;48.626;9.238;2023-03-19T10:45:04;29.10;45.50
736;DHT22;352;48.626;9.238;2023-03-19T10:47:37;28.50;44.60
736;DHT22;352;48.626;9.238;2023-03-19T10:50:06;28.20;46.40
736;DHT22;352;48.626;9.238;2023-03-19T10:52:34;27.60;45.60
736;DHT22;352;48.626;9.238;2023-03-19T10:55:11;26.70;45.40
736;DHT22;352;48.626;9.238;2023-03-19T10:57:40;25.90;47.40
736;DHT22;352;48.626;9.238;2023-03-19T11:00:15;25.70;50.80
736;DHT22;352;48.626;9.238;2023-03-19T11:02:47;25.70;49.80
736;DHT22;352;48.626;9.238;2023-03-19T11:05:25;25.90;48.50
736;DHT22;352;48.626;9.238;2023-03-19T11:07:57;26.30;49.40
736;DHT22;352;48.626;9.238;2023-03-19T11:10:28;26.30;49.70
736;DHT22;352;48.626;9.238;2023-03-19T11:12:56;26.00;49.30
736;DHT22;352;48.626;9.238;2023-03-19T11:15:28;25.70;48.20
736;DHT22;352;48.626;9.238;2023-03-19T11:17:59;25.90;49.60
736;DHT22;352;48.626;9.238;2023-03-19T11:20:29;25.30;49.10
736;DHT22;352;48.626;9.238;2023-03-19T11:22:57;24.90;49.00
736;DHT22;352;48.626;9.238;2023-03-19T11:25:29;24.30;50.40
736;DHT22;352;48.626;9.238;2023-03-19T11:28:01;23.70;50.30
736;DHT22;352;48.626;9.238;2023-03-19T11:30:35;23.40;52.70
736;DHT22;352;48.626;9.238;2023-03-19T11:36:09;22.60;53.50
736;DHT22;352;48.626;9.238;2023-03-19T11:38:46;22.40;53.10
736;DHT22;352;48.626;9.238;2023-03-19T11:41:22;22.10;55.20
736;DHT22;352;48.626;9.238;2023-03-19T11:43:58;21.90;53.60
736;DHT22;352;48.626;9.238;2023-03-19T11:46:35;21.80;54.80
736;DHT22;352;48.626;9.238;2023-03-19T11:49:14;22.00;54.20
736;DHT22;352;48.626;9.238;2023-03-19T11:51:48;22.00;54.00
736;DHT22;352;48.626;9.238;2023-03-19T11:54:22;21.90;54.60
736;DHT22;352;48.626;9.238;2023-03-19T11:56:55;21.90;53.90
736;DHT22;352;48.626;9.238;2023-03-19T11:59:45;22.00;53.90
736;DHT22;352;48.626;9.238;2023-03-19T12:02:41;22.10;54.10
736;DHT22;352;48.626;9.238;2023-03-19T12:05:19;22.30;52.40
736;DHT22;352;48.626;9.238;2023-03-19T12:07:55;22.20;55.80
736;DHT22;352;48.626;9.238;2023-03-19T12:10:28;22.20;53.50
736;DHT22;352;48.626;9.238;2023-03-19T12:13:10;21.80;52.90
736;DHT22;352;48.626;9.238;2023-03-19T12:15:46;21.60;55.70
736;DHT22;352;48.626;9.238;2023-03-19T12:18:23;21.60;56.70
736;DHT22;352;48.626;9.238;2023-03-19T12:20:59;22.00;56.90
736;DHT22;352;48.626;9.238;2023-03-19T12:23:44;22.10;55.70
736;DHT22;352;48.626;9.238;2023-03-19T12:26:22;22.00;55.10
736;DHT22;352;48.626;9.238;2023-03-19T12:28:58;21.70;53.80
736;DHT22;352;48.626;9.238;2023-03-19T12:31:43;21.50;55.70
736;DHT22;352;48.626;9.238;2023-03-19T12:34:22;21.30;55.30
736;DHT22;352;48.626;9.238;2023-03-19T12:36:53;21.20;55.70
736;DHT22;352;48.626;9.238;2023-03-19T12:39:26;21.10;55.40
736;DHT22;352;48.626;9.238;2023-03-19T12:41:57;21.30;56.10
736;DHT22;352;48.626;9.238;2023-03-19T12:44:29;21.40;56.60
736;DHT22;352;48.626;9.238;2023-03-19T12:47:00;21.50;57.00
736;DHT22;352;48.626;9.238;2023-03-19T12:49:31;21.60;57.20
736;DHT22;352;48.626;9.238;2023-03-19T12:52:04;21.60;57.10
736;DHT22;352;48.626;9.238;2023-03-19T12:54:37;21.50;57.20
736;DHT22;352;48.626;9.238;2023-03-19T12:57:09;21.20;56.00
736;DHT22;352;48.626;9.238;2023-03-19T12:59:41;20.90;56.10
736;DHT22;352;48.626;9.238;2023-03-19T13:02:17;20.80;56.60
736;DHT22;352;48.626;9.238;2023-03-19T13:04:50;20.60;57.10
736;DHT22;352;48.626;9.238;2023-03-19T13:07:21;20.50;57.00
736;DHT22;352;48.626;9.238;2023-03-19T13:09:52;20.40;58.30
736;DHT22;352;48.626;9.238;2023-03-19T13:12:23;20.30;58.00
736;DHT22;352;48.626;9.238;2023-03-19T13:14:57;20.40;57.50
736;DHT22;352;48.626;9.238;2023-03-19T13:17:30;20.60;57.90
736;DHT22;352;48.626;9.238;2023-03-19T13:20:02;20.90;57.70
736;DHT22;352;48.626;9.238;2023-03-19T13:22:35;20.90;57.00
736;DHT22;352;48.626;9.238;2023-03-19T13:25:04;20.90;57.80
736;DHT22;352;48.626;9.238;2023-03-19T13:27:33;20.90;58.80
736;DHT22;352;48.626;9.238;2023-03-19T13:30:16;20.70;58.90
736;DHT22;352;48.626;9.238;2023-03-19T13:32:47;20.60;58.10
736;DHT22;352;48.626;9.238;2023-03-19T13:35:26;20.50;58.60
736;DHT22;352;48.626;9.238;2023-03-19T13:37:58;20.50;59.40
736;DHT22;352;48.626;9.238;2023-03-19T13:40:41;20.40;59.10
736;DHT22;352;48.626;9.238;2023-03-19T13:43:38;20.40;59.70
736;DHT22;352;48.626;9.238;2023-03-19T13:46:28;20.30;59.40
736;DHT22;352;48.626;9.238;2023-03-19T13:49:02;20.40;60.70
736;DHT22;352;48.626;9.238;2023-03-19T13:51:34;20.40;61.00
736;DHT22;352;48.626;9.238;2023-03-19T13:54:04;20.40;60.70
736;DHT22;352;48.626;9.238;2023-03-19T13:57:01;20.50;59.70
736;DHT22;352;48.626;9.238;2023-03-19T13:59:31;20.40;58.40
736;DHT22;352;48.626;9.238;2023-03-19T14:02:00;20.40;57.90
736;DHT22;352;48.626;9.238;2023-03-19T14:04:28;20.20;58.30
736;DHT22;352;48.626;9.238;2023-03-19T14:06:58;20.20;59.20
736;DHT22;352;48.626;9.238;2023-03-19T14:09:37;20.10;61.70
736;DHT22;352;48.626;9.238;2023-03-19T14:12:24;20.00;61.80
736;DHT22;352;48.626;9.238;2023-03-19T14:14:57;19.90;62.20
736;DHT22;352;48.626;9.238;2023-03-19T14:17:30;19.80;62.20
736;DHT22;352;48.626;9.238;2023-03-19T14:20:04;19.50;61.40
736;DHT22;352;48.626;9.238;2023-03-19T14:22:55;19.30;61.30
736;DHT22;352;48.626;9.238;2023-03-19T14:25:22;19.10;61.10
736;DHT22;352;48.626;9.238;2023-03-19T14:27:52;18.90;62.40
736;DHT22;352;48.626;9.238;2023-03-19T14:30:28;18.70;62.70
736;DHT22;352;48.626;9.238;2023-03-19T14:32:59;18.60;63.90
736;DHT22;352;48.626;9.238;2023-03-19T14:35:27;18.40;64.10
736;DHT22;352;48.626;9.238;2023-03-19T14:37:58;18.20;66.30
736;DHT22;352;48.626;9.238;2023-03-19T14:40:30;18.00;74.60
736;DHT22;352;48.626;9.238;2023-03-19T14:43:04;17.60;83.60
736;DHT22;352;48.626;9.238;2023-03-19T14:45:48;17.20;88.90
736;DHT22;352;48.626;9.238;2023-03-19T14:48:44;17.00;90.30
736;DHT22;352;48.626;9.238;2023-03-19T14:51:29;16.90;91.20
736;DHT22;352;48.626;9.238;2023-03-19T14:54:04;16.80;90.40
736;DHT22;352;48.626;9.238;2023-03-19T14:56:33;16.80;92.30
736;DHT22;352;48.626;9.238;2023-03-19T14:59:01;16.70;93.50
736;DHT22;352;48.626;9.238;2023-03-19T15:01:31;16.80;93.20
736;DHT22;352;48.626;9.238;2023-03-19T15:04:01;16.90;92.20
736;DHT22;352;48.626;9.238;2023-03-19T15:06:33;16.90;91.00
736;DHT22;352;48.626;9.238;2023-03-19T15:09:00;16.90;91.00
736;DHT22;352;48.626;9.238;2023-03-19T15:11:41;16.90;90.90
736;DHT22;352;48.626;9.238;2023-03-19T15:14:24;16.80;91.30
736;DHT22;352;48.626;9.238;2023-03-19T15:17:02;16.80;92.40
736;DHT22;352;48.626;9.238;2023-03-19T15:19:34;16.80;92.10
736;DHT22;352;48.626;9.238;2023-03-19T15:22:11;16.80;91.10
736;DHT22;352;48.626;9.238;2023-03-19T15:24:38;16.70;92.60
736;DHT22;352;48.626;9.238;2023-03-19T15:27:18;16.70;93.00
736;DHT22;352;48.626;9.238;2023-03-19T15:29:45;16.70;94.10
736;DHT22;352;48.626;9.238;2023-03-19T15:32:12;16.70;92.40
736;DHT22;352;48.626;9.238;2023-03-19T15:34:40;16.60;92.70
736;DHT22;352;48.626;9.238;2023-03-19T15:37:11;16.50;92.10
736;DHT22;352;48.626;9.238;2023-03-19T15:39:41;16.50;92.40
736;DHT22;352;48.626;9.238;2023-03-19T15:42:09;16.40;92.30
736;DHT22;352;48.626;9.238;2023-03-19T15:44:40;16.40;92.30
736;DHT22;352;48.626;9.238;2023-03-19T15:47:12;16.50;92.40
736;DHT22;352;48.626;9.238;2023-03-19T15:49:45;16.40;91.90
736;DHT22;352;48.626;9.238;2023-03-19T15:52:16;16.40;92.30
736;DHT22;352;48.626;9.238;2023-03-19T15:54:44;16.30;92.90
736;DHT22;352;48.626;9.238;2023-03-19T15:57:12;16.30;93.10
736;DHT22;352;48.626;9.238;2023-03-19T15:59:40;16.20;93.20
736;DHT22;352;48.626;9.238;2023-03-19T16:02:15;16.10;93.50
736;DHT22;352;48.626;9.238;2023-03-19T16:04:45;16.00;93.90
736;DHT22;352;48.626;9.238;2023-03-19T16:07:22;15.90;94.80
736;DHT22;352;48.626;9.238;2023-03-19T16:09:50;15.80;95.00
736;DHT22;352;48.626;9.238;2023-03-19T16:12:33;15.80;95.00
736;DHT22;352;48.626;9.238;2023-03-19T16:17:43;15.70;95.50
736;DHT22;352;48.626;9.238;2023-03-19T16:20:13;15.70;95.40
736;DHT22;352;48.626;9.238;2023-03-19T16:22:41;15.70;96.00
736;DHT22;352;48.626;9.238;2023-03-19T16:25:13;15.70;96.40
736;DHT22;352;48.626;9.238;2023-03-19T16:27:41;15.70;96.40
736;DHT22;352;48.626;9.238;2023-03-19T16:30:17;15.70;96.20
736;DHT22;352;48.626;9.238;2023-03-19T16:32:45;15.70;96.40
736;DHT22;352;48.626;9.238;2023-03-19T16:35:15;15.70;96.20
736;DHT22;352;48.626;9.238;2023-03-19T16:37:45;15.70;96.50
736;DHT22;352;48.626;9.238;2023-03-19T16:40:38;15.70;96.70
736;DHT22;352;48.626;9.238;2023-03-19T16:43:07;15.70;96.90
736;DHT22;352;48.626;9.238;2023-03-19T16:45:38;15.70;96.80
736;DHT22;352;48.626;9.238;2023-03-19T16:48:07;15.60;96.90
736;DHT22;352;48.626;9.238;2023-03-19T16:50:37;15.60;97.10
736;DHT22;352;48.626;9.238;2023-03-19T16:53:08;15.50;97.00
736;DHT22;352;48.626;9.238;2023-03-19T16:55:37;15.40;97.50
736;DHT22;352;48.626;9.238;2023-03-19T16:58:09;15.40;97.70
736;DHT22;352;48.626;9.238;2023-03-19T17:00:37;15.40;97.70